Time;durP1;ratioP1;P1;durP2;ratioP2;P2;SDS_P1;SDS_P2;PMS_P1;PMS_P2;Temp;Humidity;BMP_temperature;BMP_pressure;BME280_temperature;BME280_humidity;BME280_pressure;Samples;Min_cycle;Max_cycle;Signal;HPM_P1;HPM_P2
2022/03/09 00:01:43;;;;;;;;;58.33;45.00;;;;;7.48;53.40;101705.38;5012474;28;45404;-71
2022/03/09 00:04:09;;;;;;;;;55.00;40.67;;;;;7.45;53.55;101695.78;5014345;28;45215;-71
2022/03/09 00:06:34;;;;;;;;;57.25;45.50;;;;;7.41;53.49;101699.34;5014107;28;46071;-71
2022/03/09 00:08:59;;;;;;;;;56.00;41.75;;;;;7.39;53.25;101701.13;5010503;28;45356;-71
2022/03/09 00:11:25;;;;;;;;;57.33;43.00;;;;;7.35;53.66;101696.81;5008586;28;45451;-71
2022/03/09 00:13:50;;;;;;;;;57.75;42.00;;;;;7.34;53.38;101692.47;5013353;28;45447;-71
2022/03/09 00:16:15;;;;;;;;;59.00;44.67;;;;;7.31;53.44;101692.53;5013170;28;45396;-72
2022/03/09 00:18:41;;;;;;;;;61.25;45.00;;;;;7.26;53.51;101697.81;5011254;28;45266;-71
2022/03/09 00:21:06;;;;;;;;;61.25;46.00;;;;;7.24;53.43;101699.56;5010992;28;45432;-71
2022/03/09 00:23:32;;;;;;;;;61.75;45.50;;;;;7.22;53.91;101705.72;5013181;28;46890;-71
2022/03/09 00:25:57;;;;;;;;;61.00;45.33;;;;;7.18;53.68;101699.66;5012633;28;62006;-71
2022/03/09 00:28:23;;;;;;;;;64.00;46.25;;;;;7.15;54.27;101701.44;5011887;28;45496;-71
2022/03/09 00:30:48;;;;;;;;;60.50;46.00;;;;;7.11;54.50;101708.50;5011440;28;45778;-71
2022/03/09 00:33:13;;;;;;;;;57.33;44.67;;;;;7.07;54.70;101701.56;5009683;28;46050;-71
2022/03/09 00:35:39;;;;;;;;;60.25;43.25;;;;;7.03;54.48;101707.72;5009026;28;45547;-71
2022/03/09 00:38:05;;;;;;;;;58.50;42.25;;;;;6.99;54.67;101714.72;5013448;28;45349;-71
2022/03/09 00:40:30;;;;;;;;;52.75;42.50;;;;;6.97;54.91;101719.09;5013274;28;45527;-71
2022/03/09 00:42:56;;;;;;;;;57.25;44.75;;;;;6.94;54.94;101721.78;5013700;28;45506;-71
2022/03/09 00:45:21;;;;;;;;;64.25;45.50;;;;;6.92;54.92;101720.91;5012048;28;45523;-71
2022/03/09 00:47:47;;;;;;;;;65.67;46.00;;;;;6.90;55.42;101719.22;5009268;28;45495;-71
2022/03/09 00:50:12;;;;;;;;;60.75;46.25;;;;;6.89;55.49;101720.06;5009516;28;45714;-71
2022/03/09 00:52:37;;;;;;;;;58.67;46.00;;;;;6.88;56.01;101721.81;5012446;28;45465;-71
2022/03/09 00:55:05;;;;;;;;;64.25;49.25;;;;;6.84;56.01;101722.75;5012663;28;46291;-71
2022/03/09 00:57:30;;;;;;;;;62.50;46.25;;;;;6.81;56.43;101717.56;5008395;28;45863;-71
2022/03/09 00:59:55;;;;;;;;;59.25;44.75;;;;;6.77;56.47;101726.31;5011140;28;45360;-71
2022/03/09 01:02:21;;;;;;;;;57.00;43.00;;;;;6.73;56.40;101733.34;5008969;28;45382;-71
2022/03/09 01:04:46;;;;;;;;;58.75;40.50;;;;;6.67;56.61;101730.78;5008987;28;46281;-71
2022/03/09 01:07:11;;;;;;;;;65.75;43.25;;;;;6.66;56.89;101728.19;5013715;28;45476;-71
2022/03/09 01:09:37;;;;;;;;;61.50;44.75;;;;;6.63;57.13;101729.09;5012214;28;45493;-71
2022/03/09 01:12:03;;;;;;;;;60.00;43.00;;;;;6.61;57.00;101733.44;5011296;28;45230;-71
2022/03/09 01:14:28;;;;;;;;;60.50;44.25;;;;;6.58;56.68;101727.38;5011695;28;46415;-71
2022/03/09 01:16:54;;;;;;;;;59.67;47.00;;;;;6.58;57.07;101724.78;5008666;28;54453;-71
2022/03/09 01:19:19;;;;;;;;;60.75;43.75;;;;;6.56;57.15;101726.56;5012748;28;45539;-72
2022/03/09 01:21:44;;;;;;;;;64.75;48.25;;;;;6.52;57.45;101728.31;5013129;28;45238;-71
2022/03/09 01:24:10;;;;;;;;;69.50;49.50;;;;;6.49;57.56;101725.75;5011357;28;45400;-71
2022/03/09 01:26:36;;;;;;;;;61.25;44.00;;;;;6.46;57.70;101725.78;5012420;28;45460;-71
2022/03/09 01:29:02;;;;;;;;;67.50;48.50;;;;;6.45;57.52;101737.09;5012168;28;45507;-71
2022/03/09 01:31:27;;;;;;;;;59.50;45.25;;;;;6.41;57.63;101738.88;5016709;28;45358;-71
2022/03/09 01:33:52;;;;;;;;;62.67;46.00;;;;;6.38;57.93;101746.75;5016515;28;46496;-71
2022/03/09 01:36:18;;;;;;;;;58.25;44.50;;;;;6.35;57.66;101743.28;5015810;28;47250;-71
2022/03/09 01:38:43;;;;;;;;;63.75;48.25;;;;;6.32;57.88;101746.81;5015876;28;45703;-71
2022/03/09 01:41:09;;;;;;;;;63.00;49.67;;;;;6.31;58.01;101746.81;5011864;28;45302;-71
2022/03/09 01:43:34;;;;;;;;;64.00;45.67;;;;;6.28;58.13;101745.09;5013106;28;45617;-71
2022/03/09 01:45:59;;;;;;;;;60.75;45.25;;;;;6.24;57.70;101740.78;5015253;28;45523;-71
2022/03/09 01:48:25;;;;;;;;;67.50;49.50;;;;;6.22;58.37;101734.72;5012482;28;45358;-71
2022/03/09 01:50:50;;;;;;;;;65.25;46.50;;;;;6.19;58.13;101739.97;5015765;28;45389;-71
2022/03/09 01:53:17;;;;;;;;;61.75;44.25;;;;;6.16;58.38;101732.16;5014639;28;47291;-72
2022/03/09 01:55:43;;;;;;;;;63.50;48.50;;;;;6.13;58.82;101732.19;5017300;28;45798;-72
2022/03/09 01:58:08;;;;;;;;;61.25;47.00;;;;;6.10;59.07;101733.06;5022756;28;45869;-72
2022/03/09 02:00:34;;;;;;;;;64.75;49.00;;;;;6.09;58.91;101733.09;5014379;28;45778;-72
2022/03/09 02:02:59;;;;;;;;;62.00;46.50;;;;;6.07;58.73;101729.63;5011178;28;46120;-72
2022/03/09 02:05:25;;;;;;;;;59.25;46.50;;;;;6.06;58.86;101726.16;5015204;28;45433;-72
2022/03/09 02:10:34;;;;;;;;;64.00;45.25;;;;;6.05;59.67;101726.16;5015832;28;45484;-72
2022/03/09 02:13:00;;;;;;;;;63.50;47.25;;;;;6.05;59.57;101720.94;5015588;28;46082;-72
2022/03/09 02:15:25;;;;;;;;;64.50;49.25;;;;;6.02;59.46;101716.63;5014228;28;50015;-72
2022/03/09 02:17:50;;;;;;;;;59.25;46.00;;;;;6.00;60.07;101718.34;5012228;28;45493;-71
2022/03/09 02:20:16;;;;;;;;;65.25;48.75;;;;;5.98;59.83;101718.38;5011711;28;45471;-72
2022/03/09 02:22:43;;;;;;;;;50.00;40.00;;;;;5.96;60.02;101721.91;5012360;28;46023;-72
2022/03/09 02:25:11;;;;;;;;;66.00;46.00;;;;;5.95;60.11;101717.53;5015047;28;45444;-72
2022/03/09 02:27:37;;;;;;;;;62.25;47.25;;;;;5.94;60.22;101721.03;5012030;28;45344;-72
2022/03/09 02:30:04;;;;;;;;;61.25;45.75;;;;;5.92;59.75;101718.44;5011050;28;48046;-72
2022/03/09 02:32:29;;;;;;;;;65.00;49.00;;;;;5.89;60.15;101713.19;5010920;28;46062;-72
2022/03/09 02:34:56;;;;;;;;;57.75;45.00;;;;;5.88;60.08;101719.31;5013693;28;45420;-72
2022/03/09 02:37:21;;;;;;;;;52.00;43.50;;;;;5.85;60.33;101716.72;5013881;28;45506;-72
2022/03/09 02:39:46;;;;;;;;;63.75;48.75;;;;;5.83;60.28;101723.69;4994662;28;45475;-72
2022/03/09 02:42:12;;;;;;;;;67.75;50.50;;;;;5.81;60.70;101729.81;5015600;28;46464;-72
2022/03/09 02:44:37;;;;;;;;;53.00;40.50;;;;;5.79;60.48;101731.53;5010594;28;45349;-72
2022/03/09 02:47:03;;;;;;;;;64.75;45.00;;;;;5.77;60.51;101736.78;5014330;28;45503;-71
2022/03/09 02:49:29;;;;;;;;;62.00;46.75;;;;;5.77;60.54;101739.38;5013246;28;45340;-72
2022/03/09 02:51:54;;;;;;;;;64.00;45.75;;;;;5.76;60.50;101738.53;5011608;28;45356;-72
2022/03/09 02:54:19;;;;;;;;;63.33;46.67;;;;;5.75;59.91;101733.31;5014129;28;47709;-72
2022/03/09 02:56:45;;;;;;;;;59.67;45.00;;;;;5.77;59.83;101736.78;5010499;28;45571;-72
2022/03/09 02:59:10;;;;;;;;;54.00;42.00;;;;;5.75;59.58;101744.63;5014600;28;45346;-72
2022/03/09 03:01:36;;;;;;;;;58.75;45.00;;;;;5.75;60.07;101742.00;5012028;28;46182;-72
2022/03/09 03:04:01;;;;;;;;;61.50;45.25;;;;;5.75;59.71;101744.63;5014037;28;45377;-72
2022/03/09 03:06:27;;;;;;;;;68.00;47.75;;;;;5.74;59.53;101742.00;5013493;28;45577;-72
2022/03/09 03:08:53;;;;;;;;;56.50;41.25;;;;;5.76;59.62;101737.66;5010203;28;45388;-72
2022/03/09 03:11:18;;;;;;;;;62.25;47.00;;;;;5.76;60.31;101741.13;5014461;28;46301;-72
2022/03/09 03:13:44;;;;;;;;;67.00;49.75;;;;;5.77;59.78;101739.38;5014146;28;45474;-72
2022/03/09 03:16:11;;;;;;;;;60.50;45.25;;;;;5.76;60.37;101729.84;5014519;28;45566;-72
2022/03/09 03:18:37;;;;;;;;;60.50;46.75;;;;;5.74;60.25;101737.69;5011042;28;45612;-72
2022/03/09 03:21:03;;;;;;;;;61.00;47.00;;;;;5.72;60.53;101734.19;5009623;28;46174;-72
2022/03/09 03:23:31;;;;;;;;;62.00;49.50;;;;;5.72;60.40;101738.56;5013515;28;45752;-72
2022/03/09 03:25:57;;;;;;;;;62.75;44.50;;;;;5.68;60.35;101739.44;5010769;28;45420;-72
2022/03/09 03:28:24;;;;;;;;;65.75;46.50;;;;;5.64;60.60;101733.41;5013019;28;45902;-72
2022/03/09 03:30:50;;;;;;;;;68.75;50.75;;;;;5.61;60.67;101730.81;5014308;28;45636;-72
2022/03/09 03:33:17;;;;;;;;;64.00;46.50;;;;;5.60;60.60;101733.44;5014707;28;45293;-72
2022/03/09 03:35:43;;;;;;;;;58.75;45.25;;;;;5.60;60.78;101726.47;5011150;28;45455;-72
2022/03/09 03:38:09;;;;;;;;;64.00;46.75;;;;;5.59;60.48;101731.69;5014674;28;45329;-72
2022/03/09 03:40:35;;;;;;;;;73.25;50.25;;;;;5.57;60.56;101731.69;5011427;28;45322;-72
2022/03/09 03:43:01;;;;;;;;;61.50;47.00;;;;;5.54;60.81;101742.16;5013264;28;45459;-72
2022/03/09 03:45:26;;;;;;;;;63.50;47.00;;;;;5.53;60.73;101742.16;4996845;28;45465;-72
2022/03/09 03:47:52;;;;;;;;;57.33;43.00;;;;;5.53;60.75;101744.75;5012877;28;45480;-72
2022/03/09 03:50:18;;;;;;;;;59.75;45.50;;;;;5.52;60.76;101745.63;5009383;28;45796;-72
2022/03/09 03:52:44;;;;;;;;;63.25;49.50;;;;;5.49;60.99;101744.78;5009889;28;45470;-72
2022/03/09 03:55:09;;;;;;;;;59.75;46.25;;;;;5.48;60.91;101744.78;5014023;28;45409;-72
2022/03/09 03:57:35;;;;;;;;;59.25;44.75;;;;;5.44;60.93;101748.31;5010887;28;45520;-72
2022/03/09 04:00:01;;;;;;;;;68.00;53.00;;;;;5.42;60.56;101750.03;5014176;28;45494;-72
2022/03/09 04:02:26;;;;;;;;;58.25;45.50;;;;;5.40;60.50;101760.47;5009216;28;45410;-72
2022/03/09 04:04:52;;;;;;;;;62.33;46.00;;;;;5.40;60.76;101755.25;5013385;28;48278;-72
2022/03/09 04:07:18;;;;;;;;;67.75;50.00;;;;;5.40;60.90;101750.03;5013840;28;45516;-72
2022/03/09 04:09:44;;;;;;;;;57.75;47.50;;;;;5.39;60.78;101748.31;5010976;28;46082;-72
2022/03/09 04:12:09;;;;;;;;;66.75;51.50;;;;;5.38;60.91;101751.81;5010843;28;45451;-72
2022/03/09 04:14:35;;;;;;;;;66.25;48.50;;;;;5.36;60.95;101744.84;5014005;28;45536;-72
2022/03/09 04:17:00;;;;;;;;;70.25;50.25;;;;;5.33;61.21;101742.28;5009389;28;45473;-72
2022/03/09 04:19:26;;;;;;;;;71.00;49.00;;;;;5.32;61.25;101745.75;5011899;28;46066;-72
2022/03/09 04:21:51;;;;;;;;;66.67;49.33;;;;;5.29;61.38;101743.16;5010876;28;45428;-72
2022/03/09 04:24:16;;;;;;;;;65.00;48.25;;;;;5.27;61.53;101750.09;5010284;28;45579;-72
2022/03/09 04:26:42;;;;;;;;;67.00;49.25;;;;;5.24;61.91;101748.41;5005956;28;45460;-72
2022/03/09 04:29:07;;;;;;;;;68.67;49.67;;;;;5.22;61.86;101756.22;5013038;28;49328;-72
2022/03/09 04:31:32;;;;;;;;;67.00;45.50;;;;;5.22;62.01;101758.84;5011400;28;45507;-72
2022/03/09 04:33:58;;;;;;;;;66.00;48.00;;;;;5.21;61.81;101753.59;5011650;28;45395;-72
2022/03/09 04:36:23;;;;;;;;;64.00;48.33;;;;;5.19;62.08;101760.59;5010078;28;45347;-72
2022/03/09 04:38:48;;;;;;;;;66.00;46.25;;;;;5.17;61.98;101765.81;5009025;28;46130;-72
2022/03/09 04:41:14;;;;;;;;;68.25;50.75;;;;;5.15;62.03;101767.53;5009127;28;46044;-72
2022/03/09 04:43:39;;;;;;;;;64.25;48.50;;;;;5.12;62.11;101762.34;5014161;28;45293;-72
2022/03/09 04:46:05;;;;;;;;;62.67;45.00;;;;;5.14;62.25;101767.56;5014155;28;45752;-72
2022/03/09 04:48:30;;;;;;;;;69.00;49.75;;;;;5.13;62.04;101771.91;5009370;28;45422;-72
2022/03/09 04:50:55;;;;;;;;;67.00;52.00;;;;;5.12;62.02;101774.53;5009102;28;45428;-72
2022/03/09 04:53:21;;;;;;;;;67.67;52.00;;;;;5.10;61.96;101771.03;5012241;28;46081;-72
2022/03/09 04:55:47;;;;;;;;;63.25;47.75;;;;;5.07;62.30;101778.88;5011533;28;46018;-72
2022/03/09 04:58:12;;;;;;;;;67.75;47.25;;;;;5.07;62.34;101774.53;5013260;28;46340;-72
2022/03/09 05:00:37;;;;;;;;;61.67;44.33;;;;;5.08;62.42;101778.00;5017904;28;45471;-72
2022/03/09 05:03:03;;;;;;;;;61.00;43.75;;;;;5.07;62.40;101779.75;5016361;28;45395;-72
2022/03/09 05:05:28;;;;;;;;;65.50;45.25;;;;;5.07;62.43;101779.75;5015178;28;45416;-72
2022/03/09 05:07:54;;;;;;;;;66.50;44.25;;;;;5.06;62.58;101780.59;5016484;28;47679;-72
2022/03/09 05:10:20;;;;;;;;;68.00;48.00;;;;;5.08;62.55;101783.22;5016025;28;45427;-72
2022/03/09 05:12:45;;;;;;;;;62.75;43.50;;;;;5.07;62.54;101781.47;5014236;28;45432;-72
2022/03/09 05:15:10;;;;;;;;;67.00;51.75;;;;;5.05;62.42;101785.81;5016364;28;45289;-72
2022/03/09 05:17:43;;;;;;;;;58.75;46.00;;;;;5.08;62.73;101788.44;5011891;28;45477;-72
2022/03/09 05:20:09;;;;;;;;;57.00;46.50;;;;;5.07;62.65;101787.56;5010964;28;45553;-72
2022/03/09 05:22:35;;;;;;;;;54.50;44.50;;;;;5.07;62.52;101792.78;5016030;28;45373;-72
2022/03/09 05:25:01;;;;;;;;;59.00;45.00;;;;;5.06;63.02;101791.00;5016719;28;45487;-72
2022/03/09 05:27:27;;;;;;;;;60.25;45.00;;;;;5.07;62.89;101797.97;5012582;28;45318;-71
2022/03/09 05:29:52;;;;;;;;;60.75;43.00;;;;;5.09;63.09;101795.38;5015806;28;45782;-72
2022/03/09 05:32:18;;;;;;;;;57.75;44.00;;;;;5.09;63.29;101796.22;5015992;28;45533;-72
2022/03/09 05:34:45;;;;;;;;;63.25;42.25;;;;;5.07;63.17;101797.13;5012044;28;45610;-72
2022/03/09 05:37:10;;;;;;;;;58.50;43.75;;;;;5.12;63.22;101803.19;5015018;28;46104;-72
2022/03/09 05:39:36;;;;;;;;;58.33;43.33;;;;;5.12;63.25;101800.56;5016893;28;45436;-72
2022/03/09 05:42:01;;;;;;;;;56.67;43.00;;;;;5.14;63.42;101810.09;5011767;28;46857;-72
2022/03/09 05:44:27;;;;;;;;;51.25;42.75;;;;;5.15;63.10;101806.63;5015748;28;45586;-72
2022/03/09 05:46:52;;;;;;;;;51.50;39.75;;;;;5.16;63.52;101810.09;5011656;28;46008;-72
2022/03/09 05:49:17;;;;;;;;;60.50;43.00;;;;;5.16;63.38;101807.47;5016054;28;45400;-72
2022/03/09 05:51:43;;;;;;;;;58.00;43.00;;;;;5.16;63.13;101810.94;5011699;28;45595;-72
2022/03/09 05:54:08;;;;;;;;;43.75;39.50;;;;;5.16;63.54;101821.38;5011400;28;45290;-72
2022/03/09 05:56:33;;;;;;;;;51.25;41.00;;;;;5.17;63.08;101823.13;5015409;28;46103;-72
2022/03/09 05:58:59;;;;;;;;;59.67;42.67;;;;;5.14;63.52;101820.53;5015779;28;45588;-72
2022/03/09 06:01:24;;;;;;;;;45.50;42.00;;;;;5.12;63.61;101830.09;5014907;28;45282;-72
2022/03/09 06:03:50;;;;;;;;;60.25;44.25;;;;;5.10;63.15;101834.44;5016478;28;45459;-72
2022/03/09 06:06:15;;;;;;;;;57.75;43.00;;;;;5.07;63.11;101829.25;5012540;28;46175;-72
2022/03/09 06:08:41;;;;;;;;;59.33;43.33;;;;;5.05;63.14;101835.31;5011313;28;45491;-72
2022/03/09 06:11:06;;;;;;;;;53.50;41.75;;;;;5.03;63.63;101830.13;5011924;28;45431;-72
2022/03/09 06:13:31;;;;;;;;;49.75;40.50;;;;;5.03;63.44;101837.94;5013758;28;45447;-72
2022/03/09 06:15:57;;;;;;;;;46.00;35.33;;;;;5.02;63.45;101827.53;5012886;28;55940;-72
2022/03/09 06:18:22;;;;;;;;;50.67;43.00;;;;;5.01;64.01;101837.06;4998281;28;45264;-72
2022/03/09 06:20:48;;;;;;;;;38.00;34.33;;;;;5.03;63.87;101831.84;5014828;28;46905;-72
2022/03/09 06:23:14;;;;;;;;;44.75;38.50;;;;;5.09;64.08;101837.03;5015607;28;45514;-72
2022/03/09 06:25:39;;;;;;;;;55.50;43.00;;;;;5.15;64.88;101837.88;5011739;28;54683;-72
2022/03/09 06:28:04;;;;;;;;;60.25;42.50;;;;;5.24;64.30;101842.22;5013671;28;45499;-72
2022/03/09 06:30:30;;;;;;;;;44.50;34.25;;;;;5.29;64.52;101845.69;5015663;28;45411;-72
2022/03/09 06:32:56;;;;;;;;;51.25;41.50;;;;;5.36;64.63;101844.78;5015016;28;45518;-72
2022/03/09 06:35:21;;;;;;;;;54.50;43.75;;;;;5.40;64.32;101846.50;5014825;28;46986;-72
2022/03/09 06:37:47;;;;;;;;;45.50;39.00;;;;;5.44;64.60;101844.75;5010679;28;45485;-71
2022/03/09 06:40:12;;;;;;;;;52.33;41.00;;;;;5.48;64.27;101849.06;5015728;28;54994;-71
2022/03/09 06:42:38;;;;;;;;;54.75;42.50;;;;;5.51;64.01;101843.84;5011633;28;45437;-71
2022/03/09 06:45:04;;;;;;;;;48.50;41.00;;;;;5.56;64.49;101852.50;5013830;28;46824;-71
2022/03/09 06:47:30;;;;;;;;;54.50;42.25;;;;;5.57;64.24;101843.81;5010884;28;45416;-71
2022/03/09 06:49:56;;;;;;;;;51.75;41.00;;;;;5.62;64.17;101855.09;5014591;28;45586;-71
2022/03/09 06:52:21;;;;;;;;;58.00;44.50;;;;;5.65;64.49;101849.88;5013785;28;56756;-71
2022/03/09 06:54:46;;;;;;;;;54.25;42.25;;;;;5.69;64.17;101845.50;5014989;28;46300;-71
2022/03/09 06:57:12;;;;;;;;;63.67;45.00;;;;;5.77;64.19;101854.16;5011025;28;45358;-71
2022/03/09 06:59:37;;;;;;;;;55.75;41.75;;;;;5.83;64.38;101854.13;5010038;28;45285;-72
2022/03/09 07:02:04;;;;;;;;;50.25;40.00;;;;;5.91;64.12;101851.47;5013667;28;45570;-71
2022/03/09 07:04:29;;;;;;;;;55.25;41.25;;;;;6.00;64.11;101861.88;4996923;28;47103;-71
2022/03/09 07:06:55;;;;;;;;;56.50;43.25;;;;;6.07;64.43;101862.72;5015001;28;45567;-72
2022/03/09 07:09:20;;;;;;;;;53.67;44.00;;;;;6.15;64.19;101876.56;5010895;28;46060;-71
2022/03/09 07:11:46;;;;;;;;;56.75;43.00;;;;;6.25;64.18;101870.41;5010810;28;45455;-71
2022/03/09 07:14:11;;;;;;;;;64.75;49.25;;;;;6.33;64.07;101870.38;5009746;28;46952;-71
2022/03/09 07:16:37;;;;;;;;;54.75;43.00;;;;;6.43;63.84;101875.53;5002376;28;45405;-71
2022/03/09 07:19:03;;;;;;;;;46.50;40.50;;;;;6.54;63.89;101872.81;4996678;28;45499;-71
2022/03/09 07:21:28;;;;;;;;;60.75;43.75;;;;;6.64;63.51;101871.88;5011447;28;45395;-72
2022/03/09 07:23:53;;;;;;;;;65.25;47.00;;;;;6.79;63.49;101876.09;5014400;28;45697;-72
2022/03/09 07:26:19;;;;;;;;;53.67;43.33;;;;;7.11;63.54;101888.00;5009598;28;45401;-71
2022/03/09 07:28:44;;;;;;;;;58.50;43.50;;;;;7.81;63.44;101877.56;5013883;28;45384;-71
2022/03/09 07:31:09;;;;;;;;;53.33;41.67;;;;;8.66;62.36;101878.94;5014652;28;45209;-70
2022/03/09 07:33:35;;;;;;;;;56.67;44.33;;;;;9.56;61.60;101878.16;5010595;28;46094;-72
2022/03/09 07:36:01;;;;;;;;;58.25;43.25;;;;;10.42;59.82;101881.50;5014672;28;45202;-72
2022/03/09 07:38:27;;;;;;;;;57.25;43.00;;;;;11.00;58.63;101876.53;5012092;28;45369;-71
2022/03/09 07:40:52;;;;;;;;;51.25;41.00;;;;;11.39;57.62;101872.84;5014180;28;45358;-72
2022/03/09 07:43:18;;;;;;;;;59.25;43.25;;;;;11.99;56.71;101873.75;5013504;28;45306;-72
2022/03/09 07:45:44;;;;;;;;;54.50;41.25;;;;;12.47;55.93;101879.22;5014319;28;45859;-72
2022/03/09 07:48:09;;;;;;;;;52.75;43.00;;;;;13.08;55.19;101873.66;5010265;28;45366;-71
2022/03/09 07:50:36;;;;;;;;;50.75;40.75;;;;;14.21;54.54;101872.09;5014430;28;45356;-72
2022/03/09 07:53:03;;;;;;;;;59.25;42.75;;;;;15.27;52.38;101859.69;5009652;28;46968;-72
2022/03/09 07:55:28;;;;;;;;;57.25;42.00;;;;;16.31;51.11;101870.75;5013468;28;45408;-72
2022/03/09 07:57:53;;;;;;;;;56.75;41.00;;;;;16.66;49.69;101877.84;5014092;28;45413;-72
2022/03/09 08:00:19;;;;;;;;;54.25;43.50;;;;;17.21;48.87;101879.47;5014046;28;45457;-72
2022/03/09 08:02:44;;;;;;;;;56.50;42.25;;;;;16.95;47.19;101884.34;4991771;28;48933;-72
2022/03/09 08:05:09;;;;;;;;;56.00;42.50;;;;;16.74;48.15;101884.56;5016782;28;45401;-72
2022/03/09 08:07:35;;;;;;;;;51.75;42.50;;;;;16.73;48.16;101893.47;5012105;28;45582;-72
2022/03/09 08:10:00;;;;;;;;;46.50;39.00;;;;;16.71;47.83;101893.56;5011114;28;45306;-72
2022/03/09 08:12:27;;;;;;;;;52.50;38.25;;;;;16.61;47.36;101894.94;5012875;28;45397;-73
2022/03/09 08:14:53;;;;;;;;;56.50;42.25;;;;;16.32;47.38;101904.31;5013355;28;45979;-70
2022/03/09 08:17:19;;;;;;;;;50.50;38.75;;;;;15.85;47.41;101900.31;5012640;28;45393;-71
2022/03/09 08:19:44;;;;;;;;;46.25;36.50;;;;;15.41;48.05;101907.63;5005951;28;45756;-72
2022/03/09 08:22:10;;;;;;;;;44.25;36.75;;;;;15.13;48.51;101906.16;5008448;28;45815;-72
2022/03/09 08:24:35;;;;;;;;;40.75;34.50;;;;;14.80;48.68;101907.63;5008769;28;45527;-72
2022/03/09 08:27:01;;;;;;;;;50.25;35.00;;;;;14.34;49.12;101912.97;5001954;28;45817;-70
2022/03/09 08:29:26;;;;;;;;;40.75;35.75;;;;;13.87;49.44;101916.59;5005137;28;45710;-72
2022/03/09 08:31:52;;;;;;;;;46.00;36.00;;;;;13.38;50.15;101910.47;5011029;28;45392;-72
2022/03/09 08:34:17;;;;;;;;;45.75;37.25;;;;;12.99;51.01;101910.91;5013601;28;45448;-71
2022/03/09 08:36:42;;;;;;;;;48.00;38.00;;;;;12.69;51.48;101913.69;5016039;28;45369;-71
2022/03/09 08:39:08;;;;;;;;;52.75;39.50;;;;;12.44;51.97;101916.25;5014483;28;45464;-72
2022/03/09 08:41:33;;;;;;;;;37.75;31.50;;;;;12.18;52.49;101910.94;5014025;28;46824;-72
2022/03/09 08:43:59;;;;;;;;;77.00;57.25;;;;;11.99;53.07;101907.97;5014077;28;45637;-71
2022/03/09 08:46:24;;;;;;;;;50.50;41.25;;;;;11.82;53.66;101911.13;5013548;28;45720;-72
2022/03/09 08:48:49;;;;;;;;;43.75;36.25;;;;;11.73;53.84;101917.47;5013568;28;45461;-71
2022/03/09 08:51:17;;;;;;;;;53.25;37.75;;;;;11.59;54.25;101922.31;5012995;28;46073;-72
2022/03/09 08:53:42;;;;;;;;;45.50;33.25;;;;;11.40;54.62;101913.19;5012463;28;45391;-72
2022/03/09 08:56:08;;;;;;;;;45.50;36.25;;;;;11.33;55.18;101917.75;5013066;28;45467;-72
2022/03/09 08:58:36;;;;;;;;;44.25;37.75;;;;;11.31;55.54;101913.44;5013004;28;45388;-72
2022/03/09 09:01:02;;;;;;;;;45.00;31.25;;;;;11.37;55.82;101913.25;5012103;28;46164;-72
2022/03/09 09:03:28;;;;;;;;;42.50;35.00;;;;;11.50;56.01;101904.13;5013052;28;45546;-72
2022/03/09 09:05:53;;;;;;;;;45.25;34.00;;;;;11.69;55.85;101910.59;5014811;28;45499;-71
2022/03/09 09:08:19;;;;;;;;;49.50;38.50;;;;;11.83;55.91;101912.00;5023081;28;45467;-72
2022/03/09 09:10:45;;;;;;;;;44.25;37.50;;;;;11.93;55.86;101906.41;5015996;28;46231;-71
2022/03/09 09:13:11;;;;;;;;;36.00;33.75;;;;;11.98;56.21;101907.13;5016330;28;45475;-71
2022/03/09 09:15:36;;;;;;;;;45.50;35.25;;;;;12.09;56.22;101906.81;5017033;28;45333;-71
2022/03/09 09:18:04;;;;;;;;;35.50;29.25;;;;;12.23;56.23;101904.63;5017631;28;45418;-72
2022/03/09 09:20:29;;;;;;;;;52.75;38.25;;;;;12.28;56.52;101909.75;5014752;28;48089;-72
2022/03/09 09:22:56;;;;;;;;;41.75;34.25;;;;;12.30;56.53;101910.53;5014740;28;45575;-71
2022/03/09 09:25:23;;;;;;;;;39.50;29.75;;;;;12.40;56.94;101908.47;5023398;28;45384;-71
2022/03/09 09:27:52;;;;;;;;;32.75;30.25;;;;;12.59;56.68;101907.00;5017327;28;45412;-71
2022/03/09 09:30:19;;;;;;;;;36.75;27.50;;;;;12.67;56.33;101910.22;5015781;28;46131;-71
2022/03/09 09:32:45;;;;;;;;;33.25;27.25;;;;;12.76;57.00;101909.94;5018542;28;45966;-71
2022/03/09 09:35:11;;;;;;;;;27.75;24.50;;;;;12.91;56.95;101905.06;5015498;28;45558;-71
2022/03/09 09:37:38;;;;;;;;;38.50;27.00;;;;;13.06;56.79;101901.88;5018604;28;45383;-71
2022/03/09 09:40:04;;;;;;;;;26.00;23.00;;;;;13.23;57.05;101890.78;5014689;28;46184;-71
2022/03/09 09:42:31;;;;;;;;;30.25;24.75;;;;;13.47;56.39;101894.31;5015722;28;45869;-71
2022/03/09 09:44:58;;;;;;;;;26.75;21.25;;;;;13.82;56.48;101890.34;4970363;28;1302489;-71
2022/03/09 09:47:24;;;;;;;;;27.50;21.50;;;;;16.83;58.02;101870.84;5017966;28;45203;-71
2022/03/09 09:49:52;;;;;;;;;24.00;20.25;;;;;21.22;52.14;101869.22;5017749;28;46360;-71
2022/03/09 09:52:19;;;;;;;;;28.50;22.75;;;;;24.62;46.19;101861.88;5017480;28;45926;-71
2022/03/09 09:54:48;;;;;;;;;19.00;17.75;;;;;27.10;42.73;101856.66;5017231;28;45471;-71
2022/03/09 09:57:15;;;;;;;;;24.50;18.25;;;;;28.83;39.73;101858.44;5017209;28;45546;-71
2022/03/09 09:59:40;;;;;;;;;22.25;19.25;;;;;30.09;38.49;101863.16;5017519;28;46416;-71
2022/03/09 10:02:07;;;;;;;;;24.50;21.75;;;;;30.73;36.31;101855.25;5011881;28;45369;-72
2022/03/09 10:04:32;;;;;;;;;26.50;19.50;;;;;31.16;35.69;101855.84;5015996;28;45527;-72
2022/03/09 10:06:58;;;;;;;;;20.00;18.00;;;;;31.29;33.27;101861.63;5016186;28;45442;-72
2022/03/09 10:09:23;;;;;;;;;19.00;15.50;;;;;31.02;33.98;101862.03;5012068;28;46156;-72
2022/03/09 10:11:54;;;;;;;;;15.75;15.50;;;;;30.82;33.36;101865.09;5011740;28;45716;-72
2022/03/09 10:14:43;;;;;;;;;19.25;16.50;;;;;29.74;32.89;101861.50;5011850;28;45819;-72
2022/03/09 10:17:19;;;;;;;;;16.50;14.75;;;;;29.43;32.62;101868.47;5011706;28;45620;-72
2022/03/09 10:19:52;;;;;;;;;14.50;13.00;;;;;29.32;33.24;101858.75;5011804;28;46233;-72
2022/03/09 10:22:29;;;;;;;;;12.50;11.00;;;;;29.03;32.87;101853.72;5000334;28;45518;-70
2022/03/09 10:24:58;;;;;;;;;20.75;14.00;;;;;29.15;32.72;101852.41;5013890;28;45459;-71
2022/03/09 10:27:50;;;;;;;;;14.00;11.75;;;;;29.17;33.12;101855.81;5014623;28;45365;-71
2022/03/09 10:30:16;;;;;;;;;10.75;10.25;;;;;28.94;32.14;101855.50;5015192;28;46362;-72
2022/03/09 10:32:59;;;;;;;;;18.50;16.00;;;;;28.98;32.32;101853.34;5011878;28;45487;-71
2022/03/09 10:35:30;;;;;;;;;12.75;11.00;;;;;29.22;32.15;101850.75;5011074;28;45483;-71
2022/03/09 10:38:01;;;;;;;;;9.75;9.50;;;;;29.10;31.39;101852.06;5011312;28;45421;-72
2022/03/09 10:40:28;;;;;;;;;12.00;11.75;;;;;28.64;31.37;101848.66;5014400;28;45334;-72
2022/03/09 10:43:11;;;;;;;;;13.25;13.00;;;;;28.03;32.67;101844.00;5013271;28;45400;-72
2022/03/09 10:45:36;;;;;;;;;12.75;11.25;;;;;27.69;33.16;101841.06;5015968;28;45357;-71
2022/03/09 10:48:04;;;;;;;;;9.00;8.25;;;;;27.44;33.21;101839.91;5011373;28;45359;-71
2022/03/09 10:50:30;;;;;;;;;10.75;9.75;;;;;27.08;33.25;101836.22;5010933;28;46063;-72
2022/03/09 10:52:58;;;;;;;;;10.00;9.00;;;;;26.68;33.66;101840.81;5011228;28;45510;-72
2022/03/09 10:55:32;;;;;;;;;9.75;9.75;;;;;26.43;33.60;101842.25;5013018;28;45511;-71
2022/03/09 10:58:16;;;;;;;;;10.00;8.25;;;;;26.22;33.89;101836.13;5014080;28;45438;-71
2022/03/09 11:00:52;;;;;;;;;11.50;10.75;;;;;26.10;33.99;101834.53;5015809;28;46382;-71
2022/03/09 11:03:21;;;;;;;;;12.25;11.00;;;;;25.70;33.98;101835.44;5015053;28;45351;-71
2022/03/09 11:05:52;;;;;;;;;12.25;10.50;;;;;25.25;34.37;101838.53;5010530;28;45472;-71
2022/03/09 11:08:20;;;;;;;;;11.00;10.75;;;;;24.80;34.47;101835.28;5010912;28;45426;-71
2022/03/09 11:10:46;;;;;;;;;11.75;11.75;;;;;24.51;35.17;101838.59;5011124;28;47162;-71
2022/03/09 11:13:13;;;;;;;;;15.50;11.50;;;;;24.36;35.45;101840.75;4999911;28;45541;-71